Time;durP1;ratioP1;P1;durP2;ratioP2;P2;SDS_P1;SDS_P2;PMS_P1;PMS_P2;Temp;Humidity;BMP_temperature;BMP_pressure;BME280_temperature;BME280_humidity;BME280_pressure;Samples;Min_cycle;Max_cycle;Signal;HPM_P1;HPM_P2
2022/07/13 00:00:46;;;;;;;;;;;;;;;19.02;58.79;101014.38;5033355;28;19912;-81
2022/07/13 00:03:11;;;;;;;;;;;;;;;18.93;59.00;101013.72;5041265;28;19917;-81
2022/07/13 00:05:37;;;;;;;;;;;;;;;18.90;59.18;101022.34;5035649;28;20068;-83
2022/07/13 00:08:02;;;;;;;;;;;;;;;18.92;58.91;101015.63;5040469;28;19912;-82
2022/07/13 00:10:29;;;;;;;;;;;;;;;18.80;59.27;101011.84;5034941;28;19909;-81
2022/07/13 00:12:55;;;;;;;;;;;;;;;18.82;59.54;101008.88;5038591;28;19976;-82
2022/07/13 00:15:22;;;;;;;;;;;;;;;18.68;59.97;101006.13;5031400;28;19995;-80
2022/07/13 00:17:49;;;;;;;;;;;;;;;18.66;59.81;101000.03;5021460;28;19945;-80
2022/07/13 00:20:14;;;;;;;;;;;;;;;18.65;60.23;101014.69;4993946;28;19918;-80
2022/07/13 00:22:40;;;;;;;;;;;;;;;18.64;60.21;101007.56;5034273;28;19920;-80
2022/07/13 00:25:06;;;;;;;;;;;;;;;18.64;60.15;101002.13;4998074;28;19908;-79
2022/07/13 00:27:32;;;;;;;;;;;;;;;18.58;60.14;101018.44;5030812;28;20301;-79
2022/07/13 00:29:57;;;;;;;;;;;;;;;18.60;59.91;101016.38;5017111;28;19909;-81
2022/07/13 00:32:22;;;;;;;;;;;;;;;18.53;60.34;101017.16;5030950;28;19909;-80
2022/07/13 00:34:52;;;;;;;;;;;;;;;18.49;60.32;101020.50;5013668;28;19909;-80
2022/07/13 00:37:19;;;;;;;;;;;;;;;18.46;60.38;101019.03;5016738;28;19913;-80
2022/07/13 00:39:44;;;;;;;;;;;;;;;18.34;60.63;101013.34;5030358;28;19970;-81
2022/07/13 00:42:09;;;;;;;;;;;;;;;18.34;60.49;101016.06;5033509;28;19924;-80
2022/07/13 00:44:35;;;;;;;;;;;;;;;18.42;60.40;101016.91;5013355;28;19917;-80
2022/07/13 00:47:01;;;;;;;;;;;;;;;18.38;60.71;101021.09;5016888;28;19931;-81
2022/07/13 00:49:27;;;;;;;;;;;;;;;18.22;60.84;101016.84;5012371;28;19917;-81
2022/07/13 00:51:53;;;;;;;;;;;;;;;18.23;60.82;101024.81;5018685;28;20262;-81
2022/07/13 00:54:28;;;;;;;;;;;;;;;18.15;61.54;101022.28;5028125;28;20035;-79
2022/07/13 00:56:59;;;;;;;;;;;;;;;18.15;60.80;101014.09;5013238;28;19916;-80
2022/07/13 00:59:31;;;;;;;;;;;;;;;18.20;60.11;101018.94;5014037;28;19915;-80
2022/07/13 01:01:58;;;;;;;;;;;;;;;18.20;60.15;101021.66;5036018;28;19909;-81
2022/07/13 01:04:23;;;;;;;;;;;;;;;18.20;60.01;101019.78;5013617;28;20016;-80
2022/07/13 01:06:49;;;;;;;;;;;;;;;18.14;60.21;101021.44;5013217;28;19992;-79
2022/07/13 01:09:15;;;;;;;;;;;;;;;18.14;60.11;101026.88;5029099;28;19964;-80
2022/07/13 01:11:42;;;;;;;;;;;;;;;18.16;59.51;101031.25;5012989;28;20143;-84
2022/07/13 01:14:08;;;;;;;;;;;;;;;18.17;59.39;101022.03;4995011;28;19913;-80
2022/07/13 01:16:34;;;;;;;;;;;;;;;18.12;59.10;101018.06;5013620;28;19919;-80
2022/07/13 01:19:00;;;;;;;;;;;;;;;18.11;59.38;101023.69;5010982;28;19935;-80
2022/07/13 01:21:25;;;;;;;;;;;;;;;18.08;58.91;101029.56;4997337;28;20303;-78
2022/07/13 01:23:50;;;;;;;;;;;;;;;18.09;59.38;101028.50;5007687;28;20027;-80
2022/07/13 01:26:16;;;;;;;;;;;;;;;17.99;59.29;101034.31;5004173;28;19921;-80
2022/07/13 01:28:41;;;;;;;;;;;;;;;17.95;59.31;101024.03;5016192;28;20250;-78
2022/07/13 01:31:06;;;;;;;;;;;;;;;18.00;59.02;101022.38;5028260;28;20002;-79
2022/07/13 01:33:33;;;;;;;;;;;;;;;17.95;59.37;101030.31;5011709;28;19908;-79
2022/07/13 01:35:58;;;;;;;;;;;;;;;17.89;59.46;101026.53;5033114;28;19913;-80
2022/07/13 01:38:24;;;;;;;;;;;;;;;18.02;59.27;101024.91;5012186;28;19927;-81
2022/07/13 01:40:49;;;;;;;;;;;;;;;18.02;58.77;101019.47;5019290;28;19959;-79
2022/07/13 01:43:17;;;;;;;;;;;;;;;18.00;57.87;101021.53;5017599;28;20013;-80
2022/07/13 01:45:43;;;;;;;;;;;;;;;17.98;58.57;101035.38;5019059;28;19917;-81
2022/07/13 01:48:09;;;;;;;;;;;;;;;17.85;57.76;101029.84;5011564;28;19919;-79
2022/07/13 01:50:35;;;;;;;;;;;;;;;17.85;57.58;101032.56;5011419;28;19913;-79
2022/07/13 01:53:01;;;;;;;;;;;;;;;17.74;55.97;101033.91;5033474;28;19913;-78
2022/07/13 01:55:28;;;;;;;;;;;;;;;17.69;55.11;101036.41;5029105;28;19975;-79
2022/07/13 01:57:58;;;;;;;;;;;;;;;17.71;54.59;101034.31;5019340;28;19952;-80
2022/07/13 02:00:24;;;;;;;;;;;;;;;17.67;54.09;101033.03;5016276;28;20358;-78
2022/07/13 02:02:50;;;;;;;;;;;;;;;17.66;53.82;101034.09;5027180;28;19913;-80
2022/07/13 02:05:16;;;;;;;;;;;;;;;17.68;54.71;101034.72;5025712;28;19921;-79
2022/07/13 02:07:42;;;;;;;;;;;;;;;17.48;54.56;101026.41;5012608;28;19913;-79
2022/07/13 02:10:08;;;;;;;;;;;;;;;17.58;54.25;101034.22;5012886;28;19913;-81
2022/07/13 02:12:34;;;;;;;;;;;;;;;17.52;52.93;101025.81;5018628;28;19913;-84
2022/07/13 02:14:59;;;;;;;;;;;;;;;17.49;52.57;101028.09;5014877;28;20058;-78
2022/07/13 02:17:25;;;;;;;;;;;;;;;17.46;52.78;101021.16;5000396;28;19917;-80
2022/07/13 02:19:51;;;;;;;;;;;;;;;17.42;52.47;101019.91;5015986;28;19920;-80
2022/07/13 02:22:17;;;;;;;;;;;;;;;17.47;52.29;101022.84;5017903;28;20407;-80
2022/07/13 02:24:43;;;;;;;;;;;;;;;17.53;52.04;101023.94;5015143;28;20003;-79
2022/07/13 02:27:09;;;;;;;;;;;;;;;17.54;52.04;101033.78;5018989;28;19958;-79
2022/07/13 02:29:34;;;;;;;;;;;;;;;17.38;52.38;101024.03;5033677;28;20383;-80
2022/07/13 02:31:59;;;;;;;;;;;;;;;17.37;52.22;101022.38;5037243;28;19913;-79
2022/07/13 02:34:27;;;;;;;;;;;;;;;17.37;52.55;101011.50;5037547;28;19917;-79
2022/07/13 02:36:55;;;;;;;;;;;;;;;17.20;52.36;101026.38;5035280;28;19917;-80
2022/07/13 02:39:21;;;;;;;;;;;;;;;17.34;52.41;101027.34;5032130;28;19909;-79
2022/07/13 02:41:46;;;;;;;;;;;;;;;17.29;52.22;101008.91;5013166;28;20304;-79
2022/07/13 02:44:13;;;;;;;;;;;;;;;17.29;51.63;101003.47;5016652;28;19924;-80
2022/07/13 02:46:38;;;;;;;;;;;;;;;17.28;51.98;101013.50;5018706;28;19934;-79
2022/07/13 02:49:04;;;;;;;;;;;;;;;17.25;51.95;101013.88;5030127;28;19913;-79
2022/07/13 02:51:30;;;;;;;;;;;;;;;17.23;51.71;101009.69;5015889;28;19984;-80
2022/07/13 02:53:56;;;;;;;;;;;;;;;17.26;51.46;101010.16;5040153;28;19996;-80
2022/07/13 02:56:22;;;;;;;;;;;;;;;17.32;51.31;101007.69;5035538;28;19909;-80
2022/07/13 02:58:48;;;;;;;;;;;;;;;17.30;51.34;101003.28;5032649;28;19920;-80
2022/07/13 03:01:17;;;;;;;;;;;;;;;17.22;50.72;101019.72;5035333;28;19944;-81
2022/07/13 03:03:42;;;;;;;;;;;;;;;17.20;50.43;101010.91;5016262;28;20005;-80
2022/07/13 03:06:08;;;;;;;;;;;;;;;17.17;50.35;101010.50;5003297;28;20000;-79
2022/07/13 03:08:34;;;;;;;;;;;;;;;17.14;50.26;101011.72;5034684;28;19996;-80
2022/07/13 03:11:00;;;;;;;;;;;;;;;17.17;50.34;101011.31;5033294;28;20392;-80
2022/07/13 03:13:25;;;;;;;;;;;;;;;17.17;49.72;101021.34;5036166;28;19924;-80
2022/07/13 03:15:50;;;;;;;;;;;;;;;17.30;49.69;101018.72;5016348;28;19916;-80
2022/07/13 03:18:15;;;;;;;;;;;;;;;17.21;49.51;101019.94;5004818;28;19983;-80
2022/07/13 03:20:41;;;;;;;;;;;;;;;17.31;49.24;101009.56;5014580;28;20768;-80
2022/07/13 03:23:09;;;;;;;;;;;;;;;17.39;49.47;101017.56;5002792;28;20342;-80
2022/07/13 03:25:36;;;;;;;;;;;;;;;17.41;49.27;101012.75;5031633;28;19959;-80
2022/07/13 03:28:02;;;;;;;;;;;;;;;17.42;49.45;101014.47;5003488;28;19920;-80
2022/07/13 03:30:30;;;;;;;;;;;;;;;17.41;49.66;101010.03;5011583;28;20036;-79
2022/07/13 03:32:55;;;;;;;;;;;;;;;17.41;49.35;101020.91;5035245;28;20380;-80
2022/07/13 03:35:21;;;;;;;;;;;;;;;17.49;48.73;101009.09;5020623;28;19909;-81
2022/07/13 03:37:46;;;;;;;;;;;;;;;17.57;48.80;101005.38;5031013;28;19955;-80
2022/07/13 03:40:12;;;;;;;;;;;;;;;17.66;49.24;101001.47;5010874;28;19913;-80
2022/07/13 03:42:38;;;;;;;;;;;;;;;17.64;49.27;101000.81;5006361;28;19924;-79
2022/07/13 03:45:04;;;;;;;;;;;;;;;17.62;49.07;100997.44;5003294;28;20358;-80
2022/07/13 03:47:29;;;;;;;;;;;;;;;17.64;48.89;101000.81;4995053;28;19913;-81
2022/07/13 03:49:55;;;;;;;;;;;;;;;17.62;49.20;100992.00;5015194;28;19920;-81
2022/07/13 03:52:24;;;;;;;;;;;;;;;17.68;49.15;100997.50;5024326;28;19920;-79
2022/07/13 03:54:49;;;;;;;;;;;;;;;17.74;49.67;101001.28;5021697;28;19909;-80
2022/07/13 03:57:15;;;;;;;;;;;;;;;17.86;48.98;101005.19;5010951;28;19929;-81
2022/07/13 03:59:40;;;;;;;;;;;;;;;17.84;48.68;100995.50;4995972;28;20387;-83
2022/07/13 04:02:05;;;;;;;;;;;;;;;17.78;48.66;101005.28;5033397;28;20369;-81
2022/07/13 04:04:31;;;;;;;;;;;;;;;17.78;49.08;101016.16;5012662;28;19913;-78
2022/07/13 04:06:56;;;;;;;;;;;;;;;17.88;48.84;100997.63;5017875;28;20428;-79
2022/07/13 04:09:21;;;;;;;;;;;;;;;17.87;48.91;101000.56;5013272;28;19920;-81
2022/07/13 04:11:48;;;;;;;;;;;;;;;17.82;48.93;101003.06;5028149;28;19913;-80
2022/07/13 04:14:14;;;;;;;;;;;;;;;18.00;48.87;100994.34;4980169;28;19913;-81
2022/07/13 04:16:39;;;;;;;;;;;;;;;18.12;48.73;100992.72;5009592;28;20233;-79
2022/07/13 04:19:05;;;;;;;;;;;;;;;18.28;48.41;100984.19;5029791;28;19916;-80
2022/07/13 04:21:32;;;;;;;;;;;;;;;18.33;48.53;100991.75;5015498;28;19966;-81
2022/07/13 04:23:59;;;;;;;;;;;;;;;18.42;48.11;100998.69;5029818;28;19923;-79
2022/07/13 04:26:24;;;;;;;;;;;;;;;18.54;48.29;100998.94;5011205;28;19960;-87
2022/07/13 04:28:50;;;;;;;;;;;;;;;18.64;48.07;100995.84;5019063;28;19956;-82
2022/07/13 04:31:20;;;;;;;;;;;;;;;18.72;48.09;101003.81;5009878;28;19917;-81
2022/07/13 04:33:45;;;;;;;;;;;;;;;18.65;48.63;101009.25;5029941;28;19923;-81
2022/07/13 04:36:11;;;;;;;;;;;;;;;18.64;48.79;101029.38;5031460;28;19913;-80
2022/07/13 04:38:38;;;;;;;;;;;;;;;18.70;48.85;101041.31;5036655;28;19919;-81
2022/07/13 04:41:03;;;;;;;;;;;;;;;18.75;49.21;101034.22;5013604;28;19913;-81
2022/07/13 04:43:29;;;;;;;;;;;;;;;18.87;49.16;101044.50;5028526;28;20375;-81
2022/07/13 04:45:56;;;;;;;;;;;;;;;19.01;49.06;101039.94;5016804;28;19927;-81
2022/07/13 04:48:21;;;;;;;;;;;;;;;19.20;49.07;101041.88;5013144;28;19928;-81
2022/07/13 04:50:47;;;;;;;;;;;;;;;19.53;48.72;101044.59;5026306;28;20464;-81
2022/07/13 04:53:14;;;;;;;;;;;;;;;19.80;48.26;101041.84;5033652;28;20366;-81
2022/07/13 04:55:39;;;;;;;;;;;;;;;20.08;47.70;101032.53;5028786;28;19920;-80
2022/07/13 04:58:05;;;;;;;;;;;;;;;20.01;47.59;101036.13;5028884;28;19909;-80
2022/07/13 05:00:30;;;;;;;;;;;;;;;20.28;47.27;101041.50;5029070;28;20004;-80
2022/07/13 05:02:56;;;;;;;;;;;;;;;20.54;46.88;101023.34;5036960;28;19944;-79
2022/07/13 05:05:22;;;;;;;;;;;;;;;20.81;46.73;101033.09;5019430;28;19974;-83
2022/07/13 05:07:47;;;;;;;;;;;;;;;21.19;45.51;101032.19;5018896;28;19917;-80
2022/07/13 05:10:13;;;;;;;;;;;;;;;21.42;45.13;101030.75;5045880;28;19916;-79
2022/07/13 05:12:41;;;;;;;;;;;;;;;21.89;44.61;101033.88;5018439;28;20304;-80
2022/07/13 05:15:07;;;;;;;;;;;;;;;22.38;43.18;101034.81;5030794;28;19920;-80
2022/07/13 05:17:33;;;;;;;;;;;;;;;22.54;42.63;101034.19;5019115;28;20008;-81
2022/07/13 05:19:58;;;;;;;;;;;;;;;22.65;42.18;101040.78;4994718;28;20020;-80
2022/07/13 05:22:23;;;;;;;;;;;;;;;22.82;42.07;101045.63;4998206;28;19920;-80
2022/07/13 05:24:49;;;;;;;;;;;;;;;23.04;42.01;101051.44;5014640;28;19912;-78
2022/07/13 05:27:14;;;;;;;;;;;;;;;23.16;41.66;101046.84;5038934;28;19918;-80
2022/07/13 05:29:39;;;;;;;;;;;;;;;23.02;41.94;101048.13;5032855;28;19908;-78
2022/07/13 05:32:06;;;;;;;;;;;;;;;23.19;41.81;101046.34;5033427;28;19917;-82
2022/07/13 05:34:31;;;;;;;;;;;;;;;23.18;42.13;101044.69;5002163;28;19936;-80
2022/07/13 05:36:57;;;;;;;;;;;;;;;23.17;41.93;101040.28;5014941;28;20372;-81
2022/07/13 05:39:22;;;;;;;;;;;;;;;23.20;41.93;101042.53;5005817;28;19921;-81
2022/07/13 05:41:47;;;;;;;;;;;;;;;23.17;41.80;101037.53;5014720;28;19963;-80
2022/07/13 05:44:13;;;;;;;;;;;;;;;23.46;41.54;101037.69;5014539;28;19913;-80
2022/07/13 05:46:38;;;;;;;;;;;;;;;23.41;41.28;101037.56;5019211;28;20258;-81
2022/07/13 05:49:03;;;;;;;;;;;;;;;23.76;40.84;101041.22;5019736;28;19909;-81
2022/07/13 05:51:29;;;;;;;;;;;;;;;23.94;39.65;101036.66;5037872;28;19913;-81
2022/07/13 05:53:54;;;;;;;;;;;;;;;24.13;38.90;101045.56;5023370;28;19987;-80
2022/07/13 05:56:19;;;;;;;;;;;;;;;24.16;38.25;101042.31;5027563;28;19913;-81
2022/07/13 05:58:45;;;;;;;;;;;;;;;24.32;38.25;101040.75;4997836;28;20334;-81
2022/07/13 06:01:10;;;;;;;;;;;;;;;24.49;38.47;101044.44;5022150;28;19916;-82
2022/07/13 06:03:35;;;;;;;;;;;;;;;24.84;37.91;101037.94;5013878;28;20008;-81
2022/07/13 06:06:01;;;;;;;;;;;;;;;25.17;36.83;101039.06;5004464;28;19913;-81
2022/07/13 06:08:26;;;;;;;;;;;;;;;25.17;36.74;101030.81;5021789;28;20120;-81
2022/07/13 06:10:54;;;;;;;;;;;;;;;25.44;35.86;101034.59;5004533;28;20310;-81
2022/07/13 06:13:22;;;;;;;;;;;;;;;25.66;35.91;101031.06;5012350;28;19913;-83
2022/07/13 06:15:47;;;;;;;;;;;;;;;25.78;34.01;101023.56;5004490;28;19924;-83
2022/07/13 06:18:13;;;;;;;;;;;;;;;26.03;32.77;101036.88;5000832;28;20354;-83
2022/07/13 06:20:38;;;;;;;;;;;;;;;26.13;32.41;101025.19;5017101;28;19914;-83
2022/07/13 06:23:09;;;;;;;;;;;;;;;26.48;32.29;101026.66;5012882;28;19917;-82
2022/07/13 06:25:38;;;;;;;;;;;;;;;26.37;32.03;101022.16;5011586;28;19909;-83
2022/07/13 06:28:05;;;;;;;;;;;;;;;26.58;31.14;101026.84;5015669;28;19916;-82
2022/07/13 06:30:31;;;;;;;;;;;;;;;26.74;30.96;101023.16;4996956;28;19913;-83
2022/07/13 06:32:56;;;;;;;;;;;;;;;27.01;30.98;101024.22;5018748;28;20027;-81
2022/07/13 06:35:23;;;;;;;;;;;;;;;27.03;30.85;101022.88;5028198;28;20285;-81
2022/07/13 06:37:48;;;;;;;;;;;;;;;26.89;31.15;101018.88;5013736;28;19913;-82
2022/07/13 06:40:13;;;;;;;;;;;;;;;27.30;30.51;101019.25;5009007;28;19920;-83
2022/07/13 06:42:39;;;;;;;;;;;;;;;27.63;29.63;101009.00;5041242;28;19919;-83
2022/07/13 06:45:05;;;;;;;;;;;;;;;27.76;29.03;101000.25;5031196;28;19984;-82
2022/07/13 06:47:30;;;;;;;;;;;;;;;27.81;28.93;101011.31;5035213;28;19909;-82
2022/07/13 06:49:55;;;;;;;;;;;;;;;27.90;28.95;101012.50;5036157;28;19967;-84
2022/07/13 06:52:21;;;;;;;;;;;;;;;28.35;28.49;101011.06;5042013;28;19989;-81
2022/07/13 06:54:46;;;;;;;;;;;;;;;28.59;28.30;101021.66;5035744;28;19913;-82
2022/07/13 06:57:11;;;;;;;;;;;;;;;28.64;27.15;101013.38;5035446;28;19944;-82
2022/07/13 06:59:37;;;;;;;;;;;;;;;28.70;26.30;101017.78;5038501;28;19956;-81
2022/07/13 07:02:02;;;;;;;;;;;;;;;28.80;26.76;101014.25;5010000;28;19921;-83
2022/07/13 07:04:29;;;;;;;;;;;;;;;29.13;26.58;101009.31;5030253;28;19971;-84
2022/07/13 07:06:56;;;;;;;;;;;;;;;29.48;26.10;101014.00;5032263;28;19915;-85
2022/07/13 07:09:23;;;;;;;;;;;;;;;29.55;25.97;101022.00;5030119;28;20008;-82
2022/07/13 07:11:49;;;;;;;;;;;;;;;29.75;25.11;101021.16;5015294;28;19921;-83
2022/07/13 07:14:19;;;;;;;;;;;;;;;30.01;25.09;101024.69;5021894;28;19909;-81
2022/07/13 07:16:47;;;;;;;;;;;;;;;30.29;24.25;101014.91;5030606;28;19913;-82
2022/07/13 07:19:13;;;;;;;;;;;;;;;30.16;24.10;101016.31;5007778;28;19972;-82
2022/07/13 07:21:45;;;;;;;;;;;;;;;30.26;24.35;101013.53;5015257;28;19948;-83
2022/07/13 07:24:16;;;;;;;;;;;;;;;30.29;24.00;101010.16;4995277;28;19929;-83
2022/07/13 07:26:41;;;;;;;;;;;;;;;30.47;23.57;101014.25;5017944;28;19920;-83
2022/07/13 07:29:09;;;;;;;;;;;;;;;30.88;22.70;101018.72;5031106;28;20424;-83
2022/07/13 07:31:36;;;;;;;;;;;;;;;31.06;22.91;101018.03;5030480;28;19914;-84
2022/07/13 07:34:01;;;;;;;;;;;;;;;30.87;22.77;101025.41;4997787;28;19980;-82
2022/07/13 07:36:32;;;;;;;;;;;;;;;31.04;22.60;101016.66;5033531;28;20011;-83
2022/07/13 07:39:16;;;;;;;;;;;;;;;31.15;23.00;101022.97;5020498;28;19908;-84
2022/07/13 07:41:47;;;;;;;;;;;;;;;31.25;22.40;101018.16;5011495;28;20027;-84
2022/07/13 07:44:12;;;;;;;;;;;;;;;31.17;22.86;101017.97;5011782;28;19936;-84
2022/07/13 07:46:41;;;;;;;;;;;;;;;31.39;21.83;101009.16;5018110;28;19948;-81
2022/07/13 07:49:06;;;;;;;;;;;;;;;31.52;21.97;101014.06;5006327;28;19913;-83
2022/07/13 07:51:33;;;;;;;;;;;;;;;31.82;21.37;101006.50;5019673;28;19909;-84
2022/07/13 07:53:59;;;;;;;;;;;;;;;31.63;21.21;101025.88;5015282;28;19944;-85
2022/07/13 07:56:26;;;;;;;;;;;;;;;31.50;21.20;101017.13;5022753;28;19913;-85
2022/07/13 07:58:51;;;;;;;;;;;;;;;31.72;21.20;101008.28;5008558;28;19916;-80
2022/07/13 08:01:17;;;;;;;;;;;;;;;31.95;21.37;101023.34;5033768;28;20395;-83
2022/07/13 08:03:48;;;;;;;;;;;;;;;31.98;21.18;101010.78;5009941;28;19975;-83
2022/07/13 08:06:15;;;;;;;;;;;;;;;32.27;21.25;101018.25;4996370;28;20350;-80
2022/07/13 08:08:41;;;;;;;;;;;;;;;32.22;20.71;101021.91;5029637;28;19925;-87
2022/07/13 08:11:09;;;;;;;;;;;;;;;31.82;20.54;101017.63;5012355;28;19913;-83
2022/07/13 08:13:36;;;;;;;;;;;;;;;32.06;20.72;101024.06;4997795;28;19909;-82
2022/07/13 08:16:04;;;;;;;;;;;;;;;31.93;20.42;101021.94;4998327;28;19974;-81
2022/07/13 08:18:29;;;;;;;;;;;;;;;32.08;20.21;101027.38;5036811;28;20719;-82
2022/07/13 08:20:54;;;;;;;;;;;;;;;32.28;20.26;101031.81;5030544;28;19913;-85
2022/07/13 08:26:05;;;;;;;;;;;;;;;32.99;19.66;101032.78;5018510;28;19975;-85
2022/07/13 08:28:31;;;;;;;;;;;;;;;33.15;19.11;101027.00;5008984;28;19916;-85
2022/07/13 08:31:02;;;;;;;;;;;;;;;33.15;18.53;101033.38;5013246;28;19912;-91
2022/07/13 08:38:56;;;;;;;;;;;;;;;33.93;18.68;101036.47;5032344;28;20381;-86
2022/07/13 08:41:22;;;;;;;;;;;;;;;33.93;18.39;101041.22;5031117;28;19912;-85
2022/07/13 08:43:55;;;;;;;;;;;;;;;34.09;18.12;101031.44;5009782;28;19924;-84
2022/07/13 08:49:23;;;;;;;;;;;;;;;35.03;17.22;101041.06;5030659;28;20010;-87
2022/07/13 08:51:51;;;;;;;;;;;;;;;35.28;17.53;101038.78;5016385;28;19909;-87
2022/07/13 08:54:20;;;;;;;;;;;;;;;35.33;17.21;101041.44;5028365;28;19923;-87
2022/07/13 08:56:47;;;;;;;;;;;;;;;35.48;17.09;101052.22;5034720;28;19913;-86
2022/07/13 08:59:13;;;;;;;;;;;;;;;35.46;17.57;101037.75;5016037;28;19936;-86
2022/07/13 09:01:39;;;;;;;;;;;;;;;35.06;17.57;101045.19;5035669;28;19963;-85
2022/07/13 09:04:23;;;;;;;;;;;;;;;35.82;16.96;101036.78;5013967;28;19913;-84
2022/07/13 09:06:48;;;;;;;;;;;;;;;35.76;16.75;101034.50;5009994;28;20038;-86
2022/07/13 09:09:27;;;;;;;;;;;;;;;36.25;15.99;101035.34;5014477;28;19959;-83
2022/07/13 09:11:56;;;;;;;;;;;;;;;36.76;15.91;101023.41;5034327;28;19921;-84
2022/07/13 09:14:27;;;;;;;;;;;;;;;37.02;15.47;101030.13;5001418;28;19913;-84
2022/07/13 09:16:55;;;;;;;;;;;;;;;37.50;15.26;101029.91;5030418;28;19921;-86
2022/07/13 09:19:23;;;;;;;;;;;;;;;38.07;15.22;101028.72;5011560;28;19909;-84
2022/07/13 09:21:50;;;;;;;;;;;;;;;37.42;15.85;101033.56;5014696;28;20347;-82
2022/07/13 09:24:16;;;;;;;;;;;;;;;37.42;14.52;101027.09;5014176;28;19917;-85
2022/07/13 09:26:42;;;;;;;;;;;;;;;37.98;14.56;101019.50;5037206;28;19949;-86
2022/07/13 09:29:11;;;;;;;;;;;;;;;38.86;13.51;101009.34;5037627;28;19912;-84
2022/07/13 09:31:50;;;;;;;;;;;;;;;37.21;14.63;101018.63;5016162;28;19920;-83
2022/07/13 09:34:15;;;;;;;;;;;;;;;37.28;14.54;101016.94;5019548;28;19917;-83
2022/07/13 09:36:41;;;;;;;;;;;;;;;38.43;13.20;101008.50;5019931;28;20807;-83
2022/07/13 09:39:11;;;;;;;;;;;;;;;39.46;12.25;101002.31;5016781;28;19932;-80
2022/07/13 09:41:37;;;;;;;;;;;;;;;40.09;10.39;101001.19;5038836;28;19969;-82
2022/07/13 09:46:57;;;;;;;;;;;;;;;40.95;10.91;100997.34;5037149;28;19920;-80
2022/07/13 09:49:32;;;;;;;;;;;;;;;41.00;10.73;100997.91;5024442;28;20365;-84
2022/07/13 09:52:02;;;;;;;;;;;;;;;41.88;10.12;100992.16;5019468;28;20131;-81
2022/07/13 09:54:28;;;;;;;;;;;;;;;42.98;9.29;100993.00;5033050;28;19909;-83
2022/07/13 09:56:57;;;;;;;;;;;;;;;42.58;9.38;100988.53;4999620;28;19966;-83
2022/07/13 09:59:26;;;;;;;;;;;;;;;42.90;9.25;100990.44;5015612;28;20383;-83
2022/07/13 10:01:52;;;;;;;;;;;;;;;43.93;7.83;100999.16;5030927;28;19924;-86
2022/07/13 10:04:17;;;;;;;;;;;;;;;44.57;8.08;100987.94;5015748;28;19909;-83
2022/07/13 10:06:42;;;;;;;;;;;;;;;43.78;8.28;100987.56;5036327;28;20234;-83
2022/07/13 10:09:08;;;;;;;;;;;;;;;43.02;8.92;100986.63;4998088;28;19944;-82
2022/07/13 10:11:36;;;;;;;;;;;;;;;43.31;8.41;100980.28;4989034;28;19914;-86
2022/07/13 10:14:01;;;;;;;;;;;;;;;43.44;8.01;100982.97;5020333;28;19916;-85
2022/07/13 10:16:29;;;;;;;;;;;;;;;43.95;7.81;100979.72;5020457;28;20305;-83
2022/07/13 10:18:54;;;;;;;;;;;;;;;44.45;7.48;100949.31;5020860;28;19916;-83
2022/07/13 10:21:38;;;;;;;;;;;;;;;45.28;7.55;100959.56;4988198;28;19917;-84
2022/07/13 10:24:04;;;;;;;;;;;;;;;43.78;8.34;100967.75;5012557;28;19960;-83
2022/07/13 10:26:30;;;;;;;;;;;;;;;42.52;8.27;100967.44;5010255;28;19925;-82
2022/07/13 10:29:05;;;;;;;;;;;;;;;43.23;8.45;100974.91;4994230;28;19967;-84
2022/07/13 10:31:36;;;;;;;;;;;;;;;42.71;9.06;100965.75;5013436;28;19919;-95
2022/07/13 10:34:01;;;;;;;;;;;;;;;43.75;8.52;100965.69;5011045;28;19913;-84
2022/07/13 10:36:45;;;;;;;;;;;;;;;44.38;7.72;100954.88;5009286;28;19966;-85
2022/07/13 10:39:11;;;;;;;;;;;;;;;44.45;7.73;100946.50;5023351;28;20003;-83
2022/07/13 10:41:54;;;;;;;;;;;;;;;43.93;7.72;100942.50;5024308;28;20357;-83
2022/07/13 10:44:29;;;;;;;;;;;;;;;43.18;9.13;100959.03;5003321;28;19917;-82
2022/07/13 10:46:54;;;;;;;;;;;;;;;42.39;8.82;100946.16;5009235;28;19924;-85
2022/07/13 10:49:51;;;;;;;;;;;;;;;42.32;9.24;100948.81;4997150;28;19955;-82
2022/07/13 10:52:29;;;;;;;;;;;;;;;41.61;9.53;100945.13;5019267;28;20365;-84
2022/07/13 10:55:03;;;;;;;;;;;;;;;40.89;10.22;100943.22;5013484;28;19917;-84
2022/07/13 10:57:37;;;;;;;;;;;;;;;41.26;9.67;100938.22;5012124;28;20369;-83
2022/07/13 11:00:22;;;;;;;;;;;;;;;41.19;9.70;100938.03;5022587;28;20289;-82
2022/07/13 11:02:55;;;;;;;;;;;;;;;40.60;10.29;100947.19;5020727;28;19944;-82
2022/07/13 11:05:23;;;;;;;;;;;;;;;40.76;10.05;100941.66;5015953;28;19909;-84
2022/07/13 11:07:48;;;;;;;;;;;;;;;40.43;10.05;100932.25;5020322;28;19992;-82
2022/07/13 11:10:23;;;;;;;;;;;;;;;40.06;10.22;100940.78;5016314;28;19922;-83
2022/07/13 11:13:02;;;;;;;;;;;;;;;39.80;10.20;100937.50;5037666;28;19999;-81
2022/07/13 11:15:46;;;;;;;;;;;;;;;39.50;10.30;100926.50;5036121;28;19920;-85
2022/07/13 11:18:21;;;;;;;;;;;;;;;39.18;10.89;100925.38;5022014;28;19933;-82
2022/07/13 11:20:59;;;;;;;;;;;;;;;37.87;12.05;100925.66;5031816;28;20019;-80
2022/07/13 11:26:15;;;;;;;;;;;;;;;37.38;12.66;100934.44;5036303;28;19924;-86
2022/07/13 11:28:44;;;;;;;;;;;;;;;37.01;12.84;100933.22;5019440;28;19959;-86
2022/07/13 11:31:10;;;;;;;;;;;;;;;37.11;12.70;100925.31;5018681;28;19916;-85
2022/07/13 11:33:36;;;;;;;;;;;;;;;36.59;12.97;100916.97;5021117;28;19913;-85
2022/07/13 11:36:01;;;;;;;;;;;;;;;36.52;13.26;100934.25;5037074;28;19913;-85
2022/07/13 11:38:34;;;;;;;;;;;;;;;36.10;13.26;100924.69;5007534;28;20362;-83
2022/07/13 11:41:00;;;;;;;;;;;;;;;36.51;12.56;100917.78;5025123;28;19917;-83
2022/07/13 11:43:25;;;;;;;;;;;;;;;36.06;13.12;100929.28;5008790;28;20277;-84
2022/07/13 11:45:52;;;;;;;;;;;;;;;36.15;13.81;100921.72;5008418;28;20003;-86
2022/07/13 11:48:17;;;;;;;;;;;;;;;36.20;13.15;100923.53;5040031;28;19908;-85
2022/07/13 11:50:44;;;;;;;;;;;;;;;36.55;13.50;100929.97;5035632;28;19905;-83
2022/07/13 11:53:18;;;;;;;;;;;;;;;36.67;13.99;100923.75;5023370;28;20365;-86
2022/07/13 11:55:46;;;;;;;;;;;;;;;36.55;13.50;100921.59;5009486;28;19928;-86
2022/07/13 11:58:19;;;;;;;;;;;;;;;36.41;13.23;100909.69;5051452;28;20039;-85
2022/07/13 12:00:45;;;;;;;;;;;;;;;36.42;13.60;100911.38;5017694;28;19913;-84
2022/07/13 12:03:10;;;;;;;;;;;;;;;36.54;13.67;100905.91;5020557;28;19999;-85
2022/07/13 12:05:36;;;;;;;;;;;;;;;36.26;14.24;100911.03;5016130;28;19913;-84
2022/07/13 12:08:04;;;;;;;;;;;;;;;36.15;13.93;100916.13;5011472;28;19919;-86
2022/07/13 12:10:34;;;;;;;;;;;;;;;36.33;13.31;100906.56;4997929;28;20324;-90
2022/07/13 12:12:59;;;;;;;;;;;;;;;36.34;14.11;100907.44;5039252;28;19963;-89
2022/07/13 12:15:24;;;;;;;;;;;;;;;36.16;13.07;100906.59;4996209;28;19917;-89
2022/07/13 12:17:54;;;;;;;;;;;;;;;35.51;13.89;100895.03;5035704;28;19936;-86
2022/07/13 12:20:21;;;;;;;;;;;;;;;35.55;13.83;100894.41;5024032;28;19963;-85
2022/07/13 12:22:48;;;;;;;;;;;;;;;35.68;13.63;100899.91;5004939;28;19931;-82
2022/07/13 12:25:23;;;;;;;;;;;;;;;35.68;13.92;100893.47;4993531;28;19920;-84
2022/07/13 12:27:50;;;;;;;;;;;;;;;34.66;14.43;100897.88;5032736;28;20012;-84
2022/07/13 12:30:16;;;;;;;;;;;;;;;33.58;15.59;100901.41;5023460;28;19920;-84
2022/07/13 12:32:57;;;;;;;;;;;;;;;33.67;15.92;100899.56;5034726;28;20352;-83
2022/07/13 12:35:26;;;;;;;;;;;;;;;34.23;15.48;100903.06;4994269;28;20396;-82
2022/07/13 12:37:53;;;;;;;;;;;;;;;34.50;15.67;100899.34;5007781;28;20435;-87
2022/07/13 12:40:40;;;;;;;;;;;;;;;34.22;15.68;100893.88;5013778;28;20104;-88
2022/07/13 12:43:18;;;;;;;;;;;;;;;34.25;14.97;100892.41;5031881;28;19924;-85
2022/07/13 12:45:56;;;;;;;;;;;;;;;34.47;15.21;100877.69;5031385;28;19913;-83
2022/07/13 12:48:27;;;;;;;;;;;;;;;34.42;15.05;100881.41;5021913;28;19913;-83
2022/07/13 12:50:58;;;;;;;;;;;;;;;34.00;14.78;100879.88;5004526;28;19909;-83
2022/07/13 12:53:24;;;;;;;;;;;;;;;33.45;15.20;100875.16;5034015;28;20460;-85
2022/07/13 12:55:51;;;;;;;;;;;;;;;33.27;15.98;100895.56;5006215;28;19909;-82